Latest Coastal Weather Observations for Broome Port

IDW60701

Issued at 11:15 pm WST Monday 24 November 2014 (issued every 10 minutes, with the page automatically refreshed every 10 minutes)

About coastal observations | Map of coastal stations | Coastal observations for WA | Marine services | Other Formats
Station Details ID: 003102 Name: BROOME NTC AWS Lat: -18.00 Lon: 122.22 Height: 0.0 m
Data from the previous 72 hours. | See also: Recent months for locations in Western Australia
Date/Time
WST
Temp

°C
Wind Pressure Rain
since 9am
mm
Weather Cloud Vis
km
Sea
Height
m
Swell
Dir
 
Speed
knots
Gust
knots
hPa Trend Height
m
Period
s
Dir
24/11:00pm 29.5 NW 13 16 1007.2 - - - - - - - - -
24/10:30pm 29.5 WNW 14 17 1007.5 - - - - - - - - -
24/10:00pm 29.5 NW 13 17 1007.9 - - - - - - - - -
24/09:30pm 29.6 NW 14 17 1007.9 - - - - - - - - -
24/09:00pm 29.7 NW 15 18 1008.0 - - - - - - - - -
24/08:30pm 29.8 NW 15 18 1007.8 - - - - - - - - -
24/08:00pm 29.8 NW 16 19 1007.7 - - - - - - - - -
24/07:30pm 29.8 WNW 16 19 1007.3 - - - - - - - - -
24/07:00pm 29.8 NW 15 19 1007.0 - - - - - - - - -
24/06:30pm 29.9 NW 15 18 1006.6 - - - - - - - - -
24/06:00pm 30.0 NW 14 17 1006.4 - - - - - - - - -
24/05:30pm 30.2 NW 15 19 1006.1 - - - - - - - - -
24/05:00pm 30.5 NW 17 21 1005.7 - - - - - - - - -
24/04:30pm 30.6 NW 17 20 1005.6 - - - - - - - - -
24/04:00pm 30.5 WNW 17 20 1005.5 - - - - - - - - -
24/03:30pm 30.4 NW 17 20 1005.4 - - - - - - - - -
24/03:00pm 31.0 NW 15 18 1005.6 - - - - - - - - -
24/02:30pm 31.1 NW 14 16 1006.0 - - - - - - - - -
24/02:00pm 30.8 NW 13 16 1006.4 - - - - - - - - -
24/01:30pm 31.0 NW 11 15 1006.8 - - - - - - - - -
24/01:00pm 31.0 NW 10 13 1007.3 - - - - - - - - -
24/12:30pm 31.4 WNW 9 12 1007.7 - - - - - - - - -
24/12:00pm 30.6 NW 9 11 1008.2 - - - - - - - - -
24/11:30am 30.6 WNW 8 10 1008.5 - - - - - - - - -
24/11:00am 30.3 WNW 9 10 1009.0 - - - - - - - - -
24/10:30am 30.7 WNW 7 9 1009.4 - - - - - - - - -
24/10:00am 30.6 W 3 5 1009.9 - - - - - - - - -
24/09:30am 30.9 S 1 3 1010.3 - - - - - - - - -
24/09:00am 30.0 SW 3 4 1010.5 - - - - - - - - -
24/08:30am 30.0 S 3 4 1010.4 - - - - - - - - -
24/08:00am 29.9 SW 4 7 1010.3 - - - - - - - - -
24/07:30am 29.8 WSW 4 6 1010.2 - - - - - - - - -
24/07:00am 29.4 W 5 7 1009.9 - - - - - - - - -
24/06:30am 29.4 W 8 12 1009.4 - - - - - - - - -
24/06:00am 29.3 W 9 12 1008.8 - - - - - - - - -
24/05:30am 29.3 W 9 12 1008.8 - - - - - - - - -
24/05:00am 29.4 WNW 9 11 1008.4 - - - - - - - - -
24/04:30am 29.3 WNW 9 11 1008.0 - - - - - - - - -
24/04:00am 29.4 WNW 8 10 1007.9 - - - - - - - - -
24/03:30am 29.3 WNW 7 9 1007.8 - - - - - - - - -
24/03:00am 29.3 WNW 10 12 1007.2 - - - - - - - - -
24/02:30am 29.1 NW 8 10 1007.4 - - - - - - - - -
24/02:00am 29.1 NW 8 10 1007.5 - - - - - - - - -
24/01:30am 28.9 NW 7 9 1007.6 - - - - - - - - -
24/01:00am 28.9 NW 7 9 1007.9 - - - - - - - - -
24/12:30am 29.0 WNW 8 9 1008.2 - - - - - - - - -
24/12:00am 29.0 WNW 7 9 1008.7 - - - - - - - - -
 
Date/Time
WST
Temp

°C
Wind Pressure Rain
since 9am
mm
Weather Cloud Vis
km
Sea
Height
m
Swell
Dir
 
Speed
knots
Gust
knots
hPa Trend Height
m
Period
s
Dir
23/11:30pm 29.2 WNW 8 9 1008.9 - - - - - - - - -
23/11:00pm 29.3 WNW 8 10 1009.2 - - - - - - - - -
23/10:30pm 29.5 W 9 11 1009.5 - - - - - - - - -
23/10:00pm 29.7 W 9 13 1009.4 - - - - - - - - -
23/09:30pm 29.7 W 11 15 1009.0 - - - - - - - - -
23/12:00pm 30.1 WNW 10 - 1008.6 - - - - - - - - -
23/11:30am 30.1 WNW 9 12 1008.8 - - - - - - - - -
23/11:00am 30.5 NW 9 12 1009.1 - - - - - - - - -
23/10:30am 29.8 WNW 10 12 1009.4 - - - - - - - - -
23/10:00am 29.2 WNW 11 13 1009.7 - - - - - - - - -
23/09:30am 29.3 WNW 9 13 1010.2 - - - - - - - - -
23/09:00am 29.3 WNW 11 14 1010.4 - - - - - - - - -
23/08:30am 29.5 NNW 8 11 1010.4 - - - - - - - - -
23/08:00am 29.4 NNW 7 9 1010.2 - - - - - - - - -
23/07:30am 29.2 N 6 9 1010.0 - - - - - - - - -
23/07:00am 28.7 NNE 7 8 1009.8 - - - - - - - - -
23/06:30am 28.0 N 7 8 1009.4 - - - - - - - - -
23/06:00am 27.2 NE 6 8 1009.1 - - - - - - - - -
23/05:30am 27.1 NNE 5 7 1008.7 - - - - - - - - -
23/05:00am 27.8 NNE 4 5 1008.4 - - - - - - - - -
23/04:30am 28.9 E 3 6 1008.5 - - - - - - - - -
23/04:00am 28.7 WNW 4 6 1007.8 - - - - - - - - -
23/03:30am 29.0 W 4 6 1007.7 - - - - - - - - -
23/03:00am 28.9 W 7 10 1007.5 - - - - - - - - -
23/02:30am 29.0 WNW 8 10 1007.5 - - - - - - - - -
23/02:00am 29.1 W 8 10 1007.7 - - - - - - - - -
23/01:30am 28.8 WNW 8 11 1007.5 - - - - - - - - -
23/01:00am 29.1 WNW 10 11 1007.7 - - - - - - - - -
23/12:30am 28.9 WNW 8 9 1007.9 - - - - - - - - -
23/12:00am 28.8 WNW 8 10 1008.1 - - - - - - - - -
 
Date/Time
WST
Temp

°C
Wind Pressure Rain
since 9am
mm
Weather Cloud Vis
km
Sea
Height
m
Swell
Dir
 
Speed
knots
Gust
knots
hPa Trend Height
m
Period
s
Dir
22/11:30pm 28.7 WNW 9 11 1008.3 - - - - - - - - -
22/11:00pm 28.9 WNW 10 12 1008.4 - - - - - - - - -
22/10:30pm 28.9 WNW 9 11 1008.8 - - - - - - - - -
22/10:00pm 29.0 WNW 9 10 1009.0 - - - - - - - - -
22/09:30pm 29.1 WNW 8 10 1008.9 - - - - - - - - -
22/09:00pm 29.1 WNW 10 12 1008.7 - - - - - - - - -
22/08:30pm 29.3 WNW 11 12 1008.7 - - - - - - - - -
22/08:00pm 29.6 WNW 9 13 1008.5 - - - - - - - - -
22/07:30pm 29.6 WNW 10 13 1008.3 - - - - - - - - -
22/07:00pm 29.6 WNW 11 13 1007.8 - - - - - - - - -
22/06:30pm 29.5 WNW 11 13 1007.4 - - - - - - - - -
22/06:00pm 29.7 WNW 13 16 1007.0 - - - - - - - - -
22/05:30pm 29.8 WNW 14 17 1006.9 - - - - - - - - -
22/05:00pm 29.9 WNW 15 19 1006.7 - - - - - - - - -
22/04:30pm 29.9 WNW 15 18 1006.7 - - - - - - - - -
22/04:00pm 30.2 WNW 15 18 1006.6 - - - - - - - - -
22/03:30pm 30.0 WNW 14 17 1006.6 - - - - - - - - -
22/03:00pm 30.4 WNW 14 17 1006.9 - - - - - - - - -
22/02:30pm 30.4 WNW 13 15 1007.3 - - - - - - - - -
22/02:00pm 30.4 WNW 12 15 1007.6 - - - - - - - - -
22/01:30pm 30.1 WNW 12 15 1007.8 - - - - - - - - -
22/01:00pm 30.5 WNW 12 15 1008.1 - - - - - - - - -
22/12:30pm 31.0 WNW 10 13 1008.4 - - - - - - - - -
22/12:00pm 30.8 WNW 11 14 1008.7 - - - - - - - - -
22/11:30am 30.9 WNW 10 13 1009.1 - - - - - - - - -
22/11:00am 30.3 WNW 10 13 1009.5 - - - - - - - - -
22/10:30am 30.5 W 10 12 1009.8 - - - - - - - - -
22/10:00am 30.4 WSW 8 11 1010.2 - - - - - - - - -
22/09:30am 30.3 WSW 9 12 1010.3 - - - - - - - - -
22/09:00am 30.2 W 9 12 1010.4 - - - - - - - - -
22/08:30am 30.3 W 8 10 1010.3 - - - - - - - - -
22/08:00am 30.3 W 8 10 1010.1 - - - - - - - - -
22/07:30am 30.2 W 9 12 1009.8 - - - - - - - - -
22/07:00am 30.2 W 9 12 1009.5 - - - - - - - - -
22/06:30am 30.0 W 10 12 1009.2 - - - - - - - - -
22/06:00am 29.9 WNW 9 11 1008.9 - - - - - - - - -
22/05:30am 29.6 NW 9 13 1008.4 - - - - - - - - -
22/05:00am 29.8 WNW 13 16 1007.6 - - - - - - - - -
22/04:30am 29.8 WNW 10 12 1007.6 - - - - - - - - -
22/04:00am 29.8 WNW 8 12 1007.4 - - - - - - - - -
22/03:30am 29.8 WNW 11 13 1006.8 - - - - - - - - -
22/03:00am 29.9 WNW 10 12 1006.7 - - - - - - - - -
22/02:30am 29.8 WNW 10 13 1006.5 - - - - - - - - -
22/02:00am 29.8 WNW 11 13 1006.6 - - - - - - - - -
22/01:30am 29.8 WNW 11 14 1006.7 - - - - - - - - -
22/01:00am 29.9 WNW 11 14 1006.8 - - - - - - - - -
22/12:30am 29.9 WNW 12 15 1006.9 - - - - - - - - -
22/12:00am 29.7 WNW 12 14 1007.2 - - - - - - - - -
 
Date/Time
WST
Temp

°C
Wind Pressure Rain
since 9am
mm
Weather Cloud Vis
km
Sea
Height
m
Swell
Dir
 
Speed
knots
Gust
knots
hPa Trend Height
m
Period
s
Dir
21/11:30pm 29.7 WNW 9 12 1007.7 - - - - - - - - -

Other Formats:

Comma delimited format used in spreadsheet applications
http://www.bom.gov.au/fwo/IDW60701/IDW60701.95202.axf

JavaScript Object Notation format (JSON) in row-major order
http://www.bom.gov.au/fwo/IDW60701/IDW60701.95202.json